sensor_id;sensor_type;location;lat;lon;timestamp;pressure;altitude;pressure_sealevel;temperature;humidity
76311;BME280;65120;59.304;18.294;2023-05-10T00:01:52;102132.41;;;9.85;47.28
76311;BME280;65120;59.304;18.294;2023-05-10T00:04:19;102128.91;;;9.83;46.95
76311;BME280;65120;59.304;18.294;2023-05-10T00:06:46;102129.78;;;9.82;47.41
76311;BME280;65120;59.304;18.294;2023-05-10T00:09:13;102128.88;;;9.80;47.40
76311;BME280;65120;59.304;18.294;2023-05-10T00:11:42;102127.13;;;9.79;47.15
76311;BME280;65120;59.304;18.294;2023-05-10T00:14:09;102140.19;;;9.77;47.60
76311;BME280;65120;59.304;18.294;2023-05-10T00:16:35;102137.53;;;9.76;47.47
76311;BME280;65120;59.304;18.294;2023-05-10T00:19:02;102142.75;;;9.73;47.21
76311;BME280;65120;59.304;18.294;2023-05-10T00:21:29;102134.06;;;9.71;47.10
76311;BME280;65120;59.304;18.294;2023-05-10T00:23:57;102139.28;;;9.71;47.78
76311;BME280;65120;59.304;18.294;2023-05-10T00:26:24;102132.28;;;9.66;47.49
76311;BME280;65120;59.304;18.294;2023-05-10T00:28:52;102135.75;;;9.65;47.79
76311;BME280;65120;59.304;18.294;2023-05-10T00:31:19;102131.34;;;9.61;47.67
76311;BME280;65120;59.304;18.294;2023-05-10T00:33:46;102131.34;;;9.61;47.68
76311;BME280;65120;59.304;18.294;2023-05-10T00:36:13;102139.16;;;9.58;47.91
76311;BME280;65120;59.304;18.294;2023-05-10T00:38:39;102135.63;;;9.53;48.19
76311;BME280;65120;59.304;18.294;2023-05-10T00:41:06;102138.25;;;9.53;48.03
76311;BME280;65120;59.304;18.294;2023-05-10T00:43:33;102142.59;;;9.51;48.14
76311;BME280;65120;59.304;18.294;2023-05-10T00:46:02;102139.09;;;9.46;47.75
76311;BME280;65120;59.304;18.294;2023-05-10T00:48:30;102139.06;;;9.43;47.99
76311;BME280;65120;59.304;18.294;2023-05-10T00:50:56;102134.69;;;9.40;47.96
76311;BME280;65120;59.304;18.294;2023-05-10T00:53:24;102142.47;;;9.39;47.89
76311;BME280;65120;59.304;18.294;2023-05-10T00:55:51;102139.84;;;9.36;47.98
76311;BME280;65120;59.304;18.294;2023-05-10T00:58:18;102143.31;;;9.33;47.77
76311;BME280;65120;59.304;18.294;2023-05-10T01:00:46;102138.06;;;9.30;48.10
76311;BME280;65120;59.304;18.294;2023-05-10T01:03:15;102128.47;;;9.23;47.86
76311;BME280;65120;59.304;18.294;2023-05-10T01:05:42;102124.97;;;9.22;48.40
76311;BME280;65120;59.304;18.294;2023-05-10T01:08:09;102135.38;;;9.19;48.51
76311;BME280;65120;59.304;18.294;2023-05-10T01:10:36;102130.09;;;9.13;48.37
76311;BME280;65120;59.304;18.294;2023-05-10T01:13:03;102136.19;;;9.12;48.50
76311;BME280;65120;59.304;18.294;2023-05-10T01:15:31;102137.03;;;9.08;48.16
76311;BME280;65120;59.304;18.294;2023-05-10T01:17:58;102129.97;;;9.01;48.48
76311;BME280;65120;59.304;18.294;2023-05-10T01:20:35;102129.06;;;8.96;48.63
76311;BME280;65120;59.304;18.294;2023-05-10T01:23:25;102138.63;;;8.94;48.70
76311;BME280;65120;59.304;18.294;2023-05-10T01:26:28;102135.91;;;8.88;48.68
76311;BME280;65120;59.304;18.294;2023-05-10T01:29:32;102133.25;;;8.82;48.38
76311;BME280;65120;59.304;18.294;2023-05-10T01:32:16;102125.34;;;8.72;48.71
76311;BME280;65120;59.304;18.294;2023-05-10T01:34:54;102135.78;;;8.71;48.70
76311;BME280;65120;59.304;18.294;2023-05-10T01:37:30;102142.66;;;8.66;49.00
76311;BME280;65120;59.304;18.294;2023-05-10T01:40:02;102139.97;;;8.61;49.17
76311;BME280;65120;59.304;18.294;2023-05-10T01:42:39;102139.06;;;8.56;49.55
76311;BME280;65120;59.304;18.294;2023-05-10T01:45:11;102142.47;;;8.50;49.15
76311;BME280;65120;59.304;18.294;2023-05-10T01:47:44;102139.84;;;8.49;49.29
76311;BME280;65120;59.304;18.294;2023-05-10T01:50:15;102132.81;;;8.40;49.46
76311;BME280;65120;59.304;18.294;2023-05-10T01:52:53;102143.22;;;8.40;49.63
76311;BME280;65120;59.304;18.294;2023-05-10T01:55:23;102138.78;;;8.34;49.61
76311;BME280;65120;59.304;18.294;2023-05-10T01:57:59;102143.94;;;8.31;49.94
76311;BME280;65120;59.304;18.294;2023-05-10T02:00:27;102148.25;;;8.29;49.72
76311;BME280;65120;59.304;18.294;2023-05-10T02:02:57;102144.72;;;8.24;49.94
76311;BME280;65120;59.304;18.294;2023-05-10T02:05:25;102143.81;;;8.22;50.13
76311;BME280;65120;59.304;18.294;2023-05-10T02:07:53;102144.66;;;8.20;49.99
76311;BME280;65120;59.304;18.294;2023-05-10T02:10:20;102138.47;;;8.11;49.92
76311;BME280;65120;59.304;18.294;2023-05-10T02:12:48;102130.59;;;8.05;50.13
76311;BME280;65120;59.304;18.294;2023-05-10T02:15:19;102148.84;;;8.08;50.23
76311;BME280;65120;59.304;18.294;2023-05-10T02:17:47;102142.69;;;8.05;50.57
76311;BME280;65120;59.304;18.294;2023-05-10T02:20:17;102146.13;;;8.02;50.36
76311;BME280;65120;59.304;18.294;2023-05-10T02:22:47;102148.69;;;7.98;50.69
76311;BME280;65120;59.304;18.294;2023-05-10T02:25:15;102153.84;;;7.95;50.62
76311;BME280;65120;59.304;18.294;2023-05-10T02:27:43;102144.25;;;7.91;50.77
76311;BME280;65120;59.304;18.294;2023-05-10T02:30:11;102148.56;;;7.88;50.78
76311;BME280;65120;59.304;18.294;2023-05-10T02:32:39;102145.94;;;7.85;51.01
76311;BME280;65120;59.304;18.294;2023-05-10T02:35:08;102151.94;;;7.83;50.96
76311;BME280;65120;59.304;18.294;2023-05-10T02:37:38;102151.03;;;7.81;51.20
76311;BME280;65120;59.304;18.294;2023-05-10T02:40:07;102149.28;;;7.78;51.07
76311;BME280;65120;59.304;18.294;2023-05-10T02:42:37;102154.44;;;7.75;51.27
76311;BME280;65120;59.304;18.294;2023-05-10T02:45:08;102156.13;;;7.73;51.46
76311;BME280;65120;59.304;18.294;2023-05-10T02:47:37;102146.53;;;7.69;51.84
76311;BME280;65120;59.304;18.294;2023-05-10T02:50:05;102147.34;;;7.66;51.54
76311;BME280;65120;59.304;18.294;2023-05-10T02:52:41;102157.72;;;7.65;51.65
76311;BME280;65120;59.304;18.294;2023-05-10T02:55:11;102149.88;;;7.60;51.79
76311;BME280;65120;59.304;18.294;2023-05-10T02:57:43;102155.03;;;7.57;51.88
76311;BME280;65120;59.304;18.294;2023-05-10T03:00:13;102152.38;;;7.54;51.98
76311;BME280;65120;59.304;18.294;2023-05-10T03:02:40;102156.63;;;7.51;51.76
76311;BME280;65120;59.304;18.294;2023-05-10T03:05:07;102153.97;;;7.48;51.98
76311;BME280;65120;59.304;18.294;2023-05-10T03:07:35;102153.06;;;7.46;52.12
76311;BME280;65120;59.304;18.294;2023-05-10T03:10:05;102151.28;;;7.41;52.67
76311;BME280;65120;59.304;18.294;2023-05-10T03:12:52;102152.16;;;7.40;52.29
76311;BME280;65120;59.304;18.294;2023-05-10T03:15:31;102154.69;;;7.37;52.55
76311;BME280;65120;59.304;18.294;2023-05-10T03:18:07;102154.66;;;7.36;52.67
76311;BME280;65120;59.304;18.294;2023-05-10T03:20:38;102151.16;;;7.34;52.70
76311;BME280;65120;59.304;18.294;2023-05-10T03:23:12;102154.59;;;7.33;52.86
76311;BME280;65120;59.304;18.294;2023-05-10T03:25:41;102151.09;;;7.31;53.17
76311;BME280;65120;59.304;18.294;2023-05-10T03:28:10;102152.81;;;7.30;52.94
76311;BME280;65120;59.304;18.294;2023-05-10T03:30:38;102156.28;;;7.31;53.48
76311;BME280;65120;59.304;18.294;2023-05-10T03:33:06;102151.09;;;7.31;53.28
76311;BME280;65120;59.304;18.294;2023-05-10T03:35:33;102154.56;;;7.30;53.60
76311;BME280;65120;59.304;18.294;2023-05-10T03:38:00;102157.16;;;7.30;53.76
76311;BME280;65120;59.304;18.294;2023-05-10T03:40:27;102151.97;;;7.31;53.67
76311;BME280;65120;59.304;18.294;2023-05-10T03:42:58;102151.97;;;7.31;54.16
76311;BME280;65120;59.304;18.294;2023-05-10T03:45:25;102150.22;;;7.30;54.16
76311;BME280;65120;59.304;18.294;2023-05-10T03:47:52;102159.00;;;7.35;54.11
76311;BME280;65120;59.304;18.294;2023-05-10T03:50:19;102157.28;;;7.37;54.26
76311;BME280;65120;59.304;18.294;2023-05-10T03:52:46;102161.69;;;7.41;54.87
76311;BME280;65120;59.304;18.294;2023-05-10T03:55:13;102155.66;;;7.46;54.88
76311;BME280;65120;59.304;18.294;2023-05-10T03:57:40;102160.94;;;7.49;55.20
76311;BME280;65120;59.304;18.294;2023-05-10T04:00:09;102162.78;;;7.54;55.32
76311;BME280;65120;59.304;18.294;2023-05-10T04:02:36;102161.09;;;7.58;55.72
76311;BME280;65120;59.304;18.294;2023-05-10T04:05:04;102164.66;;;7.63;55.79
76311;BME280;65120;59.304;18.294;2023-05-10T04:07:31;102152.59;;;7.70;55.87
76311;BME280;65120;59.304;18.294;2023-05-10T04:09:58;102164.88;;;7.78;55.84
76311;BME280;65120;59.304;18.294;2023-05-10T04:12:25;102167.59;;;7.86;56.17
76311;BME280;65120;59.304;18.294;2023-05-10T04:14:52;102158.16;;;7.93;56.52
76311;BME280;65120;59.304;18.294;2023-05-10T04:17:20;102158.28;;;8.02;56.62
76311;BME280;65120;59.304;18.294;2023-05-10T04:19:47;102164.47;;;8.10;56.34
76311;BME280;65120;59.304;18.294;2023-05-10T04:22:13;102161.97;;;8.19;56.61
76311;BME280;65120;59.304;18.294;2023-05-10T04:24:41;102164.75;;;8.28;56.88
76311;BME280;65120;59.304;18.294;2023-05-10T04:27:08;102165.78;;;8.40;56.71
76311;BME280;65120;59.304;18.294;2023-05-10T04:29:35;102169.41;;;8.51;56.98
76311;BME280;65120;59.304;18.294;2023-05-10T04:32:02;102153.00;;;8.61;56.88
76311;BME280;65120;59.304;18.294;2023-05-10T04:34:31;102166.19;;;8.76;56.46
76311;BME280;65120;59.304;18.294;2023-05-10T04:36:59;102161.16;;;8.89;56.25
76311;BME280;65120;59.304;18.294;2023-05-10T04:39:26;102163.88;;;9.01;56.49
76311;BME280;65120;59.304;18.294;2023-05-10T04:41:53;102158.78;;;9.15;56.34
76311;BME280;65120;59.304;18.294;2023-05-10T04:44:20;102152.78;;;9.23;55.92
76311;BME280;65120;59.304;18.294;2023-05-10T04:46:46;102164.28;;;9.42;55.85
76311;BME280;65120;59.304;18.294;2023-05-10T04:49:13;102155.66;;;9.54;55.72
76311;BME280;65120;59.304;18.294;2023-05-10T04:51:42;102152.31;;;9.71;55.92
76311;BME280;65120;59.304;18.294;2023-05-10T04:54:09;102151.53;;;9.85;55.96
76311;BME280;65120;59.304;18.294;2023-05-10T04:56:35;102155.09;;;10.01;55.75
76311;BME280;65120;59.304;18.294;2023-05-10T04:59:02;102156.94;;;10.18;55.53
76311;BME280;65120;59.304;18.294;2023-05-10T05:01:29;102152.69;;;10.29;55.79
76311;BME280;65120;59.304;18.294;2023-05-10T05:03:56;102158.84;;;10.46;55.21
76311;BME280;65120;59.304;18.294;2023-05-10T05:06:23;102144.09;;;10.54;55.29
76311;BME280;65120;59.304;18.294;2023-05-10T05:08:51;102157.25;;;10.76;55.19
76311;BME280;65120;59.304;18.294;2023-05-10T05:11:18;102157.25;;;10.91;54.51
76311;BME280;65120;59.304;18.294;2023-05-10T05:13:46;102159.03;;;11.05;54.66
76311;BME280;65120;59.304;18.294;2023-05-10T05:16:13;102157.31;;;11.19;54.55
76311;BME280;65120;59.304;18.294;2023-05-10T05:18:40;102159.06;;;11.32;54.07
76311;BME280;65120;59.304;18.294;2023-05-10T05:21:13;102157.31;;;11.43;53.55
76311;BME280;65120;59.304;18.294;2023-05-10T05:23:41;102152.97;;;11.52;53.44
76311;BME280;65120;59.304;18.294;2023-05-10T05:26:09;102156.44;;;11.63;53.08
76311;BME280;65120;59.304;18.294;2023-05-10T05:28:36;102156.44;;;11.70;53.00
76311;BME280;65120;59.304;18.294;2023-05-10T05:31:03;102166.91;;;11.80;52.83
76311;BME280;65120;59.304;18.294;2023-05-10T05:33:30;102162.56;;;11.86;52.59
76311;BME280;65120;59.304;18.294;2023-05-10T05:36:00;102163.41;;;11.91;52.35
76311;BME280;65120;59.304;18.294;2023-05-10T05:38:27;102159.06;;;11.98;51.95
76311;BME280;65120;59.304;18.294;2023-05-10T05:40:53;102157.31;;;12.02;52.05
76311;BME280;65120;59.304;18.294;2023-05-10T05:43:22;102154.66;;;12.08;51.81
76311;BME280;65120;59.304;18.294;2023-05-10T05:45:49;102161.63;;;12.13;51.55
76311;BME280;65120;59.304;18.294;2023-05-10T05:48:15;102156.38;;;12.17;51.45
76311;BME280;65120;59.304;18.294;2023-05-10T05:50:42;102162.50;;;12.22;51.59
76311;BME280;65120;59.304;18.294;2023-05-10T05:53:09;102161.59;;;12.24;51.22
76311;BME280;65120;59.304;18.294;2023-05-10T05:55:36;102155.47;;;12.28;51.31
76311;BME280;65120;59.304;18.294;2023-05-10T05:58:03;102162.47;;;12.32;51.32
76311;BME280;65120;59.304;18.294;2023-05-10T06:00:31;102152.81;;;12.37;50.71
76311;BME280;65120;59.304;18.294;2023-05-10T06:02:58;102166.78;;;12.43;50.85
76311;BME280;65120;59.304;18.294;2023-05-10T06:05:25;102152.78;;;12.45;50.63
76311;BME280;65120;59.304;18.294;2023-05-10T06:07:52;102156.25;;;12.49;50.46
76311;BME280;65120;59.304;18.294;2023-05-10T06:10:18;102161.47;;;12.52;50.58
76311;BME280;65120;59.304;18.294;2023-05-10T06:12:45;102149.28;;;12.48;50.42
76311;BME280;65120;59.304;18.294;2023-05-10T06:15:12;102153.59;;;12.55;50.12
76311;BME280;65120;59.304;18.294;2023-05-10T06:17:40;102157.97;;;12.57;50.10
76311;BME280;65120;59.304;18.294;2023-05-10T06:20:09;102159.72;;;12.58;50.02
76311;BME280;65120;59.304;18.294;2023-05-10T06:22:36;102156.22;;;12.61;50.13
76311;BME280;65120;59.304;18.294;2023-05-10T06:25:03;102158.81;;;12.63;49.98
76311;BME280;65120;59.304;18.294;2023-05-10T06:27:30;102161.44;;;12.64;49.69
76311;BME280;65120;59.304;18.294;2023-05-10T06:29:57;102155.31;;;12.65;49.77
76311;BME280;65120;59.304;18.294;2023-05-10T06:32:24;102155.28;;;12.68;49.49
76311;BME280;65120;59.304;18.294;2023-05-10T06:34:52;102149.16;;;12.69;49.41
76311;BME280;65120;59.304;18.294;2023-05-10T06:37:19;102148.28;;;12.73;49.54
76311;BME280;65120;59.304;18.294;2023-05-10T06:39:46;102149.13;;;12.77;49.46
76311;BME280;65120;59.304;18.294;2023-05-10T06:42:13;102132.56;;;12.73;49.43
76311;BME280;65120;59.304;18.294;2023-05-10T06:44:40;102150.00;;;12.83;49.56
76311;BME280;65120;59.304;18.294;2023-05-10T06:47:07;102149.06;;;12.88;49.26
76311;BME280;65120;59.304;18.294;2023-05-10T06:49:34;102151.69;;;12.91;48.83
76311;BME280;65120;59.304;18.294;2023-05-10T06:52:02;102142.91;;;12.98;48.78
76311;BME280;65120;59.304;18.294;2023-05-10T06:54:29;102151.59;;;13.04;48.92
76311;BME280;65120;59.304;18.294;2023-05-10T06:56:56;102148.94;;;13.11;48.68
76311;BME280;65120;59.304;18.294;2023-05-10T06:59:23;102148.00;;;13.18;48.72
76311;BME280;65120;59.304;18.294;2023-05-10T07:01:50;102152.31;;;13.25;48.83
76311;BME280;65120;59.304;18.294;2023-05-10T07:04:16;102151.38;;;13.37;48.80
76311;BME280;65120;59.304;18.294;2023-05-10T07:06:44;102159.16;;;13.46;48.65
76311;BME280;65120;59.304;18.294;2023-05-10T07:09:13;102149.47;;;13.56;48.39
76311;BME280;65120;59.304;18.294;2023-05-10T07:11:40;102153.75;;;13.66;48.17
76311;BME280;65120;59.304;18.294;2023-05-10T07:14:07;102149.25;;;13.79;48.03
76311;BME280;65120;59.304;18.294;2023-05-10T07:16:33;102146.53;;;13.89;47.90
76311;BME280;65120;59.304;18.294;2023-05-10T07:19:00;102154.28;;;14.03;47.39
76311;BME280;65120;59.304;18.294;2023-05-10T07:21:27;102145.34;;;14.16;47.18
76311;BME280;65120;59.304;18.294;2023-05-10T07:23:54;102144.34;;;14.28;46.97
76311;BME280;65120;59.304;18.294;2023-05-10T07:26:22;102150.31;;;14.41;46.91
76311;BME280;65120;59.304;18.294;2023-05-10T07:28:49;102151.06;;;14.55;46.44
76311;BME280;65120;59.304;18.294;2023-05-10T07:31:16;102151.75;;;14.70;46.72
76311;BME280;65120;59.304;18.294;2023-05-10T07:33:43;102149.84;;;14.81;46.18
76311;BME280;65120;59.304;18.294;2023-05-10T07:36:10;102147.00;;;14.93;46.76
76311;BME280;65120;59.304;18.294;2023-05-10T07:38:37;102138.97;;;15.02;46.12
76311;BME280;65120;59.304;18.294;2023-05-10T07:41:03;102136.94;;;15.23;46.11
76311;BME280;65120;59.304;18.294;2023-05-10T07:43:32;102149.84;;;15.37;45.76
76311;BME280;65120;59.304;18.294;2023-05-10T07:45:59;102147.84;;;15.52;45.68
76311;BME280;65120;59.304;18.294;2023-05-10T07:48:26;102145.88;;;15.65;45.15
76311;BME280;65120;59.304;18.294;2023-05-10T07:50:52;102145.63;;;15.79;44.75
76311;BME280;65120;59.304;18.294;2023-05-10T07:53:19;102149.75;;;15.94;44.99
76311;BME280;65120;59.304;18.294;2023-05-10T07:55:50;102141.56;;;16.09;44.44
76311;BME280;65120;59.304;18.294;2023-05-10T07:58:17;102151.81;;;16.23;43.83
76311;BME280;65120;59.304;18.294;2023-05-10T08:00:45;102147.13;;;16.37;43.82
76311;BME280;65120;59.304;18.294;2023-05-10T08:03:12;102148.66;;;16.49;43.31
76311;BME280;65120;59.304;18.294;2023-05-10T08:05:39;102146.66;;;16.59;43.16
76311;BME280;65120;59.304;18.294;2023-05-10T08:08:05;102148.22;;;16.69;42.42
76311;BME280;65120;59.304;18.294;2023-05-10T08:10:32;102149.88;;;16.76;42.41
76311;BME280;65120;59.304;18.294;2023-05-10T08:12:59;102154.94;;;16.84;42.28
76311;BME280;65120;59.304;18.294;2023-05-10T08:15:26;102160.09;;;16.90;41.89
76311;BME280;65120;59.304;18.294;2023-05-10T08:17:54;102153.00;;;16.94;42.04
76311;BME280;65120;59.304;18.294;2023-05-10T08:20:21;102155.47;;;17.00;41.55
76311;BME280;65120;59.304;18.294;2023-05-10T08:22:48;102152.63;;;17.07;41.71
76311;BME280;65120;59.304;18.294;2023-05-10T08:25:15;102149.88;;;17.14;41.49
76311;BME280;65120;59.304;18.294;2023-05-10T08:27:42;102141.03;;;17.15;41.53
76311;BME280;65120;59.304;18.294;2023-05-10T08:30:10;102143.44;;;17.25;41.23
76311;BME280;65120;59.304;18.294;2023-05-10T08:32:37;102149.47;;;17.30;40.82
76311;BME280;65120;59.304;18.294;2023-05-10T08:35:06;102148.56;;;17.31;40.60
76311;BME280;65120;59.304;18.294;2023-05-10T08:37:33;102148.56;;;17.31;40.24
76311;BME280;65120;59.304;18.294;2023-05-10T08:40:00;102147.63;;;17.34;40.18
76311;BME280;65120;59.304;18.294;2023-05-10T08:42:28;102151.09;;;17.36;40.21
76311;BME280;65120;59.304;18.294;2023-05-10T08:44:57;102146.59;;;17.40;40.25
76311;BME280;65120;59.304;18.294;2023-05-10T08:47:25;102151.72;;;17.46;40.23
76311;BME280;65120;59.304;18.294;2023-05-10T08:49:52;102146.28;;;17.52;40.01
76311;BME280;65120;59.304;18.294;2023-05-10T08:52:21;102150.53;;;17.58;40.12
76311;BME280;65120;59.304;18.294;2023-05-10T08:54:49;102147.78;;;17.62;40.02
76311;BME280;65120;59.304;18.294;2023-05-10T08:57:16;102148.47;;;17.69;39.99
76311;BME280;65120;59.304;18.294;2023-05-10T08:59:43;102154.53;;;17.72;40.01
76311;BME280;65120;59.304;18.294;2023-05-10T09:02:10;102146.63;;;17.72;39.58
76311;BME280;65120;59.304;18.294;2023-05-10T09:04:38;102138.59;;;17.75;39.49
76311;BME280;65120;59.304;18.294;2023-05-10T09:07:05;102149.88;;;17.84;39.60
76311;BME280;65120;59.304;18.294;2023-05-10T09:09:34;102133.22;;;17.82;39.19
76311;BME280;65120;59.304;18.294;2023-05-10T09:12:01;102146.13;;;17.92;39.13
76311;BME280;65120;59.304;18.294;2023-05-10T09:14:28;102151.28;;;17.97;39.00
76311;BME280;65120;59.304;18.294;2023-05-10T09:16:56;102156.50;;;18.00;38.81
76311;BME280;65120;59.304;18.294;2023-05-10T09:19:23;102154.63;;;18.04;38.49
76311;BME280;65120;59.304;18.294;2023-05-10T09:21:49;102149.34;;;18.04;38.41
76311;BME280;65120;59.304;18.294;2023-05-10T09:24:16;102158.00;;;18.09;38.28
76311;BME280;65120;59.304;18.294;2023-05-10T09:26:48;102160.63;;;18.10;38.15
76311;BME280;65120;59.304;18.294;2023-05-10T09:29:15;102155.28;;;18.12;38.22
76311;BME280;65120;59.304;18.294;2023-05-10T09:31:47;102162.25;;;18.14;38.49
76311;BME280;65120;59.304;18.294;2023-05-10T09:34:17;102165.75;;;18.16;38.51
76311;BME280;65120;59.304;18.294;2023-05-10T09:36:55;102156.97;;;18.14;38.43
76311;BME280;65120;59.304;18.294;2023-05-10T09:39:30;102156.97;;;18.14;38.27
76311;BME280;65120;59.304;18.294;2023-05-10T09:42:01;102157.84;;;18.15;38.17
76311;BME280;65120;59.304;18.294;2023-05-10T09:44:29;102155.19;;;18.15;37.81
76311;BME280;65120;59.304;18.294;2023-05-10T09:46:56;102157.06;;;18.11;37.78
76311;BME280;65120;59.304;18.294;2023-05-10T09:49:23;102166.78;;;18.11;37.64
76311;BME280;65120;59.304;18.294;2023-05-10T09:52:00;102160.66;;;18.09;38.09
76311;BME280;65120;59.304;18.294;2023-05-10T09:54:28;102162.44;;;18.08;37.99
76311;BME280;65120;59.304;18.294;2023-05-10T09:56:55;102161.59;;;18.06;38.01
76311;BME280;65120;59.304;18.294;2023-05-10T09:59:25;102163.38;;;18.06;37.94
76311;BME280;65120;59.304;18.294;2023-05-10T10:01:53;102155.53;;;18.03;37.74
76311;BME280;65120;59.304;18.294;2023-05-10T10:04:22;102162.53;;;18.05;37.98
76311;BME280;65120;59.304;18.294;2023-05-10T10:06:59;102158.97;;;18.06;37.78
76311;BME280;65120;59.304;18.294;2023-05-10T10:09:26;102162.56;;;18.04;37.66
76311;BME280;65120;59.304;18.294;2023-05-10T10:11:54;102159.03;;;18.03;37.34
76311;BME280;65120;59.304;18.294;2023-05-10T10:14:23;102160.00;;;18.01;37.45
76311;BME280;65120;59.304;18.294;2023-05-10T10:16:50;102164.41;;;18.02;37.54
76311;BME280;65120;59.304;18.294;2023-05-10T10:19:18;102160.84;;;18.01;36.98
76311;BME280;65120;59.304;18.294;2023-05-10T10:21:45;102155.66;;;17.98;37.22
76311;BME280;65120;59.304;18.294;2023-05-10T10:24:11;102160.94;;;17.98;36.92
76311;BME280;65120;59.304;18.294;2023-05-10T10:26:39;102154.03;;;17.94;36.87
76311;BME280;65120;59.304;18.294;2023-05-10T10:29:15;102161.13;;;17.92;37.02
76311;BME280;65120;59.304;18.294;2023-05-10T10:31:51;102154.19;;;17.88;36.71
76311;BME280;65120;59.304;18.294;2023-05-10T10:34:26;102156.91;;;17.85;36.97
76311;BME280;65120;59.304;18.294;2023-05-10T10:36:54;102162.28;;;17.82;36.66
76311;BME280;65120;59.304;18.294;2023-05-10T10:39:21;102156.09;;;17.81;37.04
76311;BME280;65120;59.304;18.294;2023-05-10T10:41:51;102158.81;;;17.80;36.67
76311;BME280;65120;59.304;18.294;2023-05-10T10:44:37;102154.41;;;17.79;36.84
76311;BME280;65120;59.304;18.294;2023-05-10T10:50:03;102148.47;;;17.69;36.33
76311;BME280;65120;59.304;18.294;2023-05-10T10:52:31;102142.34;;;17.67;36.39
76311;BME280;65120;59.304;18.294;2023-05-10T10:55:01;102142.41;;;17.65;36.03
76311;BME280;65120;59.304;18.294;2023-05-10T10:57:32;102148.59;;;17.64;36.22
76311;BME280;65120;59.304;18.294;2023-05-10T11:00:19;102139.03;;;17.60;35.97
76311;BME280;65120;59.304;18.294;2023-05-10T11:02:48;102138.28;;;17.55;36.06
76311;BME280;65120;59.304;18.294;2023-05-10T11:05:35;102141.00;;;17.52;36.04
76311;BME280;65120;59.304;18.294;2023-05-10T11:08:27;102136.66;;;17.49;36.00
76311;BME280;65120;59.304;18.294;2023-05-10T11:11:03;102126.22;;;17.45;36.00
76311;BME280;65120;59.304;18.294;2023-05-10T11:13:33;102135.81;;;17.47;36.36
76311;BME280;65120;59.304;18.294;2023-05-10T11:16:11;102137.59;;;17.47;35.93
76311;BME280;65120;59.304;18.294;2023-05-10T11:18:40;102117.66;;;17.35;36.02
76311;BME280;65120;59.304;18.294;2023-05-10T11:21:09;102146.50;;;17.43;36.28
76311;BME280;65120;59.304;18.294;2023-05-10T11:23:51;102130.69;;;17.41;36.22
76311;BME280;65120;59.304;18.294;2023-05-10T11:26:21;102137.75;;;17.41;35.67
76311;BME280;65120;59.304;18.294;2023-05-10T11:28:52;102136.91;;;17.40;35.46
76311;BME280;65120;59.304;18.294;2023-05-10T11:31:21;102127.19;;;17.41;35.05
76311;BME280;65120;59.304;18.294;2023-05-10T11:33:51;102121.81;;;17.44;34.71
76311;BME280;65120;59.304;18.294;2023-05-10T11:36:20;102129.66;;;17.48;33.85
76311;BME280;65120;59.304;18.294;2023-05-10T11:38:47;102128.69;;;17.51;33.10
76311;BME280;65120;59.304;18.294;2023-05-10T11:41:17;102125.91;;;17.56;31.77
76311;BME280;65120;59.304;18.294;2023-05-10T11:43:46;102118.91;;;17.54;31.91
76311;BME280;65120;59.304;18.294;2023-05-10T11:46:14;102131.19;;;17.57;31.54
76311;BME280;65120;59.304;18.294;2023-05-10T11:48:42;102131.00;;;17.63;30.38
76311;BME280;65120;59.304;18.294;2023-05-10T11:51:10;102131.84;;;17.65;30.35
76311;BME280;65120;59.304;18.294;2023-05-10T11:53:38;102133.56;;;17.66;30.46
76311;BME280;65120;59.304;18.294;2023-05-10T11:56:05;102135.31;;;17.67;29.84
76311;BME280;65120;59.304;18.294;2023-05-10T11:58:33;102132.63;;;17.69;29.64
76311;BME280;65120;59.304;18.294;2023-05-10T12:01:00;102124.63;;;17.72;29.73
76311;BME280;65120;59.304;18.294;2023-05-10T12:03:28;102121.03;;;17.74;29.57
76311;BME280;65120;59.304;18.294;2023-05-10T12:05:56;102128.94;;;17.76;29.51
76311;BME280;65120;59.304;18.294;2023-05-10T12:08:25;102127.97;;;17.79;29.71
76311;BME280;65120;59.304;18.294;2023-05-10T12:10:53;102121.81;;;17.80;28.97
76311;BME280;65120;59.304;18.294;2023-05-10T12:13:21;102118.25;;;17.81;29.05
76311;BME280;65120;59.304;18.294;2023-05-10T12:15:47;102126.19;;;17.81;28.89
76311;BME280;65120;59.304;18.294;2023-05-10T12:18:14;102117.28;;;17.83;28.75
76311;BME280;65120;59.304;18.294;2023-05-10T12:20:41;102112.88;;;17.84;28.81
76311;BME280;65120;59.304;18.294;2023-05-10T12:23:09;102122.50;;;17.86;29.28
76311;BME280;65120;59.304;18.294;2023-05-10T12:25:37;102120.72;;;17.87;28.91
76311;BME280;65120;59.304;18.294;2023-05-10T12:28:07;102123.34;;;17.88;28.19
76311;BME280;65120;59.304;18.294;2023-05-10T12:30:35;102122.50;;;17.86;28.04
76311;BME280;65120;59.304;18.294;2023-05-10T12:33:07;102130.41;;;17.88;28.02
76311;BME280;65120;59.304;18.294;2023-05-10T12:35:44;102135.69;;;17.88;28.00
76311;BME280;65120;59.304;18.294;2023-05-10T12:38:27;102131.28;;;17.87;27.87
76311;BME280;65120;59.304;18.294;2023-05-10T12:40:58;102123.44;;;17.84;28.20
76311;BME280;65120;59.304;18.294;2023-05-10T12:43:25;102120.88;;;17.81;28.13
76311;BME280;65120;59.304;18.294;2023-05-10T12:45:52;102122.59;;;17.83;28.02
76311;BME280;65120;59.304;18.294;2023-05-10T12:48:19;102121.72;;;17.83;28.27
76311;BME280;65120;59.304;18.294;2023-05-10T12:50:46;102116.44;;;17.83;28.21
76311;BME280;65120;59.304;18.294;2023-05-10T12:53:14;102126.94;;;17.84;28.68
76311;BME280;65120;59.304;18.294;2023-05-10T12:55:41;102132.22;;;17.86;28.45